Airport Name : Sheremetyevo

Other Name : Sheremetyevo

ICAO : UUEE

IATA : SVO

FAA :

Latitude : 55.972642

Longitude : 37.414589

Country : Russia

Local Date and Time : 1/24/2018 2:16:00 PM

 

TAF (Terminal Aerodrome Forecast)

TAF AMD UUEE 240905Z 2409/2509 24003MPS 6000 OVC007 TXM07/2412Z TNM11/2500Z TEMPO 2409/2412 1000 BR OVC003 BECMG 2412/2414 18005MPS

 

METAR (METeorological Aerodrome Report)

UUEE 241100Z 20002MPS 9000 BKN003 M08/M09 Q1029 R24R/410145 R24L/420151 NOSIG

UUEE 241030Z 18002MPS 9000 BKN003 M07/M09 Q1029 R24L/420151 R24R/410145 NOSIG

UUEE 241000Z 21002MPS 180V250 8000 -SN SCT002 M08/M09 Q1029 R24R/410145 R24L/420151 NOSIG

UUEE 240930Z 26002MPS 9999 OVC006 M07/M09 Q1029 R24R/410145 R24L/420151 NOSIG

UUEE 240900Z VRB01MPS 9999 OVC005 M07/M08 Q1029 R24L/420151 NOSIG

UUEE 240830Z VRB01MPS 9999 OVC005 M07/M08 Q1029 R24L/420151 NOSIG

UUEE 240800Z VRB01MPS 9999 OVC006 M07/M09 Q1029 R24R/420140 R24L/420151 NOSIG

UUEE 240730Z 26002MPS 9999 OVC007 M08/M09 Q1029 R24R/420140 R24L/420151 NOSIG